Aviation Digital Data Service (ADDS)

Output produced by METARs form (1044 UTC 17 June 2019)
found at http://www.aviationweather.gov/metar/data/
 
Forecast for: UWKD (KAZAN , RU)
Text: TAF UWKD 170800Z 1709/1809 28005MPS 9999 SCT020 TX26/1712Z TN10/1801Z
Forecast period: 0900 UTC 17 June 2019 to 0400 UTC 18 June 2019
Forecast type: FROM: standard forecast or significant change
Winds: from the W (280 degrees) at 12 MPH (10 knots; 5.1 m/s)
Visibility: 6 or more miles 10+ km)
Ceiling: at least 12,000 feet AGL
Clouds: scattered clouds at 2000 feet AGL
Weather: no significant weather forecast for this period
Text: TEMPO 1709/1715 30006G12MPS -SHRA BKN030CB
Forecast period: 0900 to 1500 UTC 17 June 2019
Forecast type: TEMPORARY: The following changes expected for less than half the time period
Winds: from the WNW (300 degrees) at 14 MPH (12 knots; 6.2 m/s)
gusting to 26 MPH (23 knots; 11.8 m/s)
Visibility: missing
Ceiling: 3000 feet AGL
Clouds: broken clouds at 3000 feet AGL
Weather: -SHRA  (light rain showers)
Text: BECMG 1804/1806 VRB01MPS
Forecast period: 0400 to 0900 UTC 18 June 2019
Forecast type: BECOMING: Conditions expected to become as follows by 0600 UTC 18 June 2019
Winds: variable direction winds at 2 MPH (2 knots; 1.0 m/s)
Visibility: 6 or more miles 10+ km)
Ceiling: at least 12,000 feet AGL
Clouds: scattered clouds at 2000 feet AGL
Weather: no significant weather forecast for this period